Terminal Aerodrome Forecast
Issued by NWS Omaha/Valley, NE

Home | Current Version | Previous Version | Graphics & Text | Print | Product List | Glossary On
Versions: 1 2 3 4 5 6 7 8 9 10 11 12 13 14 15 16 17 18 19 20 21 22 23 24 25 26 27 28 29 30 31 32 33 34 35 36 37 38 39
000
FTUS43 KOAX 241124
TAFOFK
TAF
KOFK 241124Z 2412/2512 15008KT P6SM OVC020
     FM241400 15012KT P6SM OVC015
      TEMPO 2414/2418 3SM -SHRA BR OVC008
     FM250200 11008KT 5SM -RA BR OVC015
     FM250400 11006KT 6SM BR OVC007
     FM250600 VRB04KT 4SM BR OVC003=

USA.gov is the U.S. government's official web portal to all federal, state and local government web resources and services.